Morgan, Minnesota
Current Conditions -  °F | °C
As of 1:53 PM on Sunday 23 Nov 2014 (Local Time) from KRWF Reporting Station
Light Rain Light Rain  
Wind Chill: 33°   Ceiling: 3600
Heat Index: 40°   Visibility: 9mi
Dew Point: 38°   Wind: 12mph
Humidity: 93%   Direction: 320°NW
Pressure: 29.46"   Gusts: NA
Location:  44.42°N, 94.93°W
Report Text: KRWF 231953Z AUTO 32010KT 9SM -RA SCT008 OVC036 04/03 A2946 RMK AO2 SLP981 P0002 T00440033
Loading
Personal Weather Stations






























Interactive Weather Map New forecast layout! Learn more

10-Day Weather Forecast

Advertisements
Track Severe Weather on mobile